Time;durP1;ratioP1;P1;durP2;ratioP2;P2;SDS_P1;SDS_P2;PMS_P1;PMS_P2;Temp;Humidity;BMP_temperature;BMP_pressure;BME280_temperature;BME280_humidity;BME280_pressure;Samples;Min_cycle;Max_cycle;Signal;HPM_P1;HPM_P2
2021/04/28 00:01:18;;;;;;;3.25;1.48;;;16.90;51.10;;;;;;10499713;28;20449;-61
2021/04/28 00:06:19;;;;;;;2.05;0.70;;;16.90;51.10;;;;;;10499407;28;20060;-59
2021/04/28 00:11:20;;;;;;;1.30;0.88;;;16.90;51.20;;;;;;10498290;28;20025;-58
2021/04/28 00:16:21;;;;;;;2.08;0.85;;;16.80;51.70;;;;;;10499148;28;20469;-58
2021/04/28 00:21:22;;;;;;;1.33;0.73;;;16.80;51.10;;;;;;10498873;28;20020;-57
2021/04/28 00:26:24;;;;;;;3.15;0.75;;;16.80;51.10;;;;;;10498772;28;20036;-58
2021/04/28 00:31:24;;;;;;;2.90;0.73;;;16.80;51.10;;;;;;10498520;28;20024;-57
2021/04/28 00:36:25;;;;;;;3.00;1.08;;;16.80;51.10;;;;;;10480936;28;20024;-57
2021/04/28 00:41:26;;;;;;;1.33;0.90;;;16.80;51.10;;;;;;10498223;28;20029;-58
2021/04/28 00:46:27;;;;;;;1.00;0.70;;;16.80;51.10;;;;;;10479836;28;20530;-57
2021/04/28 00:51:27;;;;;;;1.30;0.80;;;16.80;51.20;;;;;;10497726;28;20052;-57
2021/04/28 00:56:28;;;;;;;2.28;0.90;;;16.80;51.10;;;;;;10497430;28;20036;-58
2021/04/28 01:01:29;;;;;;;1.08;0.63;;;16.80;51.10;;;;;;10479733;28;20056;-57
2021/04/28 01:06:30;;;;;;;0.98;0.70;;;16.70;51.00;;;;;;10479506;28;20058;-58
2021/04/28 01:11:32;;;;;;;1.52;0.85;;;16.70;51.10;;;;;;10473764;28;20024;-58
2021/04/28 01:16:34;;;;;;;1.65;0.75;;;16.70;51.10;;;;;;10479309;28;20025;-58
2021/04/28 01:21:35;;;;;;;1.48;0.50;;;16.70;51.10;;;;;;10496650;28;20056;-59
2021/04/28 01:26:36;;;;;;;1.77;0.80;;;16.70;51.10;;;;;;10478995;28;20024;-58
2021/04/28 01:31:38;;;;;;;1.73;0.73;;;16.70;51.10;;;;;;10479164;28;20025;-58
2021/04/28 01:36:40;;;;;;;1.50;0.50;;;16.70;51.10;;;;;;10478831;28;20035;-57
2021/04/28 01:41:44;;;;;;;1.58;0.90;;;16.70;51.20;;;;;;10478966;28;20078;-57
2021/04/28 01:46:45;;;;;;;0.90;0.75;;;16.70;51.10;;;;;;10496395;28;20373;-57
2021/04/28 01:51:47;;;;;;;1.48;0.85;;;16.70;51.10;;;;;;10496925;28;20154;-57
2021/04/28 01:56:50;;;;;;;2.15;0.80;;;16.70;51.20;;;;;;10478352;28;20146;-57
2021/04/28 02:01:54;;;;;;;1.60;0.70;;;16.60;51.10;;;;;;10496707;28;20370;-57
2021/04/28 02:06:55;;;;;;;0.98;0.65;;;16.60;51.10;;;;;;10495992;28;20037;-58
2021/04/28 02:11:56;;;;;;;0.80;0.50;;;16.60;51.10;;;;;;10464647;28;20377;-58
2021/04/28 02:16:59;;;;;;;1.13;0.70;;;16.60;51.10;;;;;;10478083;28;20036;-58
2021/04/28 02:22:01;;;;;;;1.73;0.60;;;16.60;51.10;;;;;;10478082;28;20036;-58
2021/04/28 02:27:03;;;;;;;1.60;0.80;;;16.60;51.10;;;;;;10477905;28;20090;-57
2021/04/28 02:32:05;;;;;;;1.48;0.70;;;16.60;51.20;;;;;;10495852;28;20200;-58
2021/04/28 02:37:06;;;;;;;2.63;0.80;;;16.60;51.10;;;;;;10499700;28;20500;-58
2021/04/28 02:42:07;;;;;;;1.63;0.70;;;16.60;51.20;;;;;;10506381;28;20036;-57
2021/04/28 02:47:08;;;;;;;1.17;0.75;;;16.50;51.10;;;;;;10512042;28;20068;-57
2021/04/28 02:52:11;;;;;;;1.80;0.90;;;16.50;51.10;;;;;;10484798;28;20089;-57
2021/04/28 02:57:12;;;;;;;0.77;0.70;;;16.50;51.10;;;;;;10484575;28;20029;-58
2021/04/28 03:02:13;;;;;;;1.52;0.80;;;16.50;51.20;;;;;;10501802;28;20115;-58
2021/04/28 03:07:15;;;;;;;1.63;0.90;;;16.50;51.20;;;;;;10484008;28;20388;-58
2021/04/28 03:12:16;;;;;;;1.30;0.80;;;16.50;51.80;;;;;;10501493;28;20052;-58
2021/04/28 03:17:17;;;;;;;1.15;0.73;;;16.50;51.10;;;;;;10501525;28;20345;-58
2021/04/28 03:22:18;;;;;;;1.55;0.88;;;16.50;51.20;;;;;;10501335;28;20028;-58
2021/04/28 03:27:20;;;;;;;1.27;0.80;;;16.50;51.20;;;;;;10501202;28;20035;-58
2021/04/28 03:32:21;;;;;;;1.60;0.60;;;16.50;51.20;;;;;;10501035;28;20033;-57
2021/04/28 03:37:22;;;;;;;1.23;0.60;;;16.40;51.10;;;;;;10500710;28;20119;-58
2021/04/28 03:42:23;;;;;;;2.08;0.63;;;16.40;51.10;;;;;;10500506;28;20103;-57
2021/04/28 03:47:24;;;;;;;1.20;0.60;;;16.40;51.10;;;;;;10500007;28;20542;-57
2021/04/28 03:52:25;;;;;;;1.85;1.08;;;16.40;51.10;;;;;;10513775;28;20029;-58
2021/04/28 03:57:25;;;;;;;1.25;0.95;;;16.40;51.10;;;;;;10499769;28;20032;-58
2021/04/28 04:02:29;;;;;;;2.00;0.95;;;16.40;51.20;;;;;;10509671;28;20077;-57
2021/04/28 04:07:30;;;;;;;1.27;0.70;;;16.40;51.20;;;;;;10498614;28;20029;-57
2021/04/28 04:12:31;;;;;;;1.77;0.90;;;16.40;51.20;;;;;;10498155;28;20394;-58
2021/04/28 04:17:31;;;;;;;1.30;0.60;;;16.30;51.10;;;;;;10498963;28;20033;-57
2021/04/28 04:22:32;;;;;;;1.02;0.50;;;16.40;51.20;;;;;;10498716;28;20404;-58
2021/04/28 04:27:34;;;;;;;1.85;0.68;;;16.30;51.20;;;;;;10498735;28;20029;-57
2021/04/28 04:32:35;;;;;;;1.88;0.50;;;16.30;51.80;;;;;;10474091;28;20067;-57
2021/04/28 04:37:35;;;;;;;0.70;0.60;;;16.30;51.10;;;;;;10498323;28;20036;-58
2021/04/28 04:42:36;;;;;;;1.02;0.80;;;16.30;51.20;;;;;;10497079;28;20036;-58
2021/04/28 04:47:38;;;;;;;1.88;0.70;;;16.30;51.20;;;;;;10495950;28;20051;-58
2021/04/28 04:52:39;;;;;;;1.08;0.68;;;16.30;51.20;;;;;;10496917;28;20020;-57
2021/04/28 04:57:39;;;;;;;1.08;0.55;;;16.30;51.20;;;;;;10472540;28;20040;-57
2021/04/28 05:02:40;;;;;;;1.08;0.73;;;16.20;51.20;;;;;;10496096;28;20040;-58
2021/04/28 05:07:42;;;;;;;1.35;0.70;;;16.30;51.10;;;;;;10478351;28;20033;-58
2021/04/28 05:12:46;;;;;;;4.85;0.77;;;16.30;51.20;;;;;;10478248;28;20025;-58
2021/04/28 05:17:47;;;;;;;4.65;1.17;;;16.30;52.20;;;;;;10497537;28;20021;-59
2021/04/28 05:22:47;;;;;;;6.38;1.33;;;16.30;52.50;;;;;;10496598;28;20103;-58
2021/04/28 05:27:48;;;;;;;5.30;1.40;;;16.30;53.50;;;;;;10497107;28;20048;-58
2021/04/28 05:32:49;;;;;;;3.75;1.17;;;16.30;54.30;;;;;;10496441;28;20583;-58
2021/04/28 05:37:50;;;;;;;11.70;1.60;;;16.40;54.10;;;;;;10476244;28;20025;-59
2021/04/28 05:42:50;;;;;;;13.52;1.55;;;16.40;53.50;;;;;;10496610;28;20025;-59
2021/04/28 05:47:51;;;;;;;17.55;1.58;;;16.40;53.80;;;;;;10478473;28;20039;-59
2021/04/28 05:52:52;;;;;;;8.95;3.00;;;16.30;53.70;;;;;;10496424;28;20024;-58
2021/04/28 05:57:52;;;;;;;11.57;2.13;;;16.40;53.80;;;;;;10494776;28;20021;-58
2021/04/28 06:02:53;;;;;;;6.82;1.40;;;16.30;53.80;;;;;;10495840;28;20100;-59
2021/04/28 06:07:54;;;;;;;7.22;1.50;;;16.30;53.40;;;;;;10495946;28;20039;-58
2021/04/28 06:12:55;;;;;;;11.40;2.63;;;16.30;53.20;;;;;;10483174;28;20111;-58
2021/04/28 06:17:56;;;;;;;13.48;2.08;;;16.30;53.30;;;;;;10503255;28;20103;-58
2021/04/28 06:22:56;;;;;;;12.93;2.97;;;16.30;53.30;;;;;;10484203;28;20511;-59
2021/04/28 06:27:57;;;;;;;5.07;2.22;;;16.30;53.40;;;;;;10501991;28;20028;-62
2021/04/28 06:32:58;;;;;;;5.78;2.42;;;16.30;53.10;;;;;;10484376;28;20013;-64
2021/04/28 06:38:01;;;;;;;9.07;1.92;;;16.30;53.00;;;;;;10501182;28;20033;-64
2021/04/28 06:43:04;;;;;;;13.23;3.00;;;16.20;52.60;;;;;;10479095;28;20469;-61
2021/04/28 06:48:06;;;;;;;7.70;2.03;;;16.20;52.70;;;;;;10472809;28;20445;-61
2021/04/28 06:53:07;;;;;;;8.25;2.30;;;16.20;52.70;;;;;;10502107;28;20033;-62
2021/04/28 06:58:08;;;;;;;5.43;1.88;;;16.20;52.60;;;;;;10500882;28;20353;-63
2021/04/28 07:03:08;;;;;;;6.22;1.58;;;16.20;52.60;;;;;;10499183;28;20039;-62
2021/04/28 07:08:09;;;;;;;3.08;1.13;;;16.20;52.50;;;;;;10481790;28;20027;-62
2021/04/28 07:13:10;;;;;;;7.93;1.95;;;16.20;52.50;;;;;;10500148;28;20161;-62
2021/04/28 07:18:10;;;;;;;5.53;1.80;;;16.20;52.30;;;;;;10501190;28;20029;-61
2021/04/28 07:23:11;;;;;;;7.90;2.00;;;16.20;52.30;;;;;;10488420;28;20036;-60
2021/04/28 07:28:12;;;;;;;4.95;2.00;;;16.20;52.20;;;;;;10486927;28;20041;-62
2021/04/28 07:33:13;;;;;;;8.52;2.78;;;16.20;52.20;;;;;;10499748;28;20028;-61
2021/04/28 07:38:13;;;;;;;5.00;2.05;;;16.20;52.30;;;;;;10499165;28;20112;-62
2021/04/28 07:43:14;;;;;;;5.97;2.20;;;16.20;52.40;;;;;;10481909;28;20148;-62
2021/04/28 07:48:15;;;;;;;4.88;1.50;;;16.20;52.40;;;;;;10470592;28;20048;-62
2021/04/28 07:53:16;;;;;;;5.57;1.38;;;16.20;52.50;;;;;;10455494;28;20095;-62
2021/04/28 07:58:19;;;;;;;6.10;2.50;;;16.20;52.50;;;;;;10481136;28;20048;-62
2021/04/28 08:03:19;;;;;;;5.07;1.75;;;16.20;52.60;;;;;;10477728;28;20037;-62
2021/04/28 08:08:20;;;;;;;4.90;1.88;;;16.20;52.60;;;;;;10458399;28;20403;-62
2021/04/28 08:13:21;;;;;;;5.93;1.33;;;16.20;52.60;;;;;;10467673;28;20038;-62
2021/04/28 08:18:22;;;;;;;8.00;1.80;;;16.20;52.40;;;;;;10498424;28;20112;-62
2021/04/28 08:23:29;;;;;;;5.18;1.90;;;16.20;52.40;;;;;;10498664;28;20029;-61
2021/04/28 08:28:30;;;;;;;5.75;1.50;;;16.20;52.40;;;;;;10498366;28;20131;-62
2021/04/28 08:33:31;;;;;;;5.35;2.45;;;16.20;52.50;;;;;;10497567;28;20362;-62
2021/04/28 08:38:33;;;;;;;6.38;2.22;;;16.20;52.50;;;;;;10496753;28;20131;-62
2021/04/28 08:43:34;;;;;;;2.95;1.60;;;16.20;52.60;;;;;;10482516;28;20085;-62
2021/04/28 08:48:35;;;;;;;3.45;1.25;;;16.30;52.60;;;;;;10480209;28;20492;-61
2021/04/28 08:53:37;;;;;;;3.75;2.13;;;16.30;52.60;;;;;;10479912;28;20503;-62
2021/04/28 08:58:38;;;;;;;4.18;1.55;;;16.30;52.70;;;;;;10475739;28;20472;-61
2021/04/28 09:03:44;;;;;;;5.40;1.77;;;16.30;52.70;;;;;;10504646;28;20024;-62
2021/04/28 09:08:48;;;;;;;4.00;1.92;;;16.30;52.70;;;;;;10497187;28;20032;-61
2021/04/28 09:14:16;;;;;;;3.72;1.58;;;16.30;52.70;;;;;;10495975;28;20035;-61
2021/04/28 09:19:32;;;;;;;6.85;2.08;;;16.30;52.70;;;;;;10495187;28;20484;-61
2021/04/28 09:24:48;;;;;;;3.17;1.55;;;16.30;52.70;;;;;;10488413;28;20089;-61
2021/04/28 09:29:53;;;;;;;4.43;1.40;;;16.30;52.60;;;;;;10495596;28;20031;-60
2021/04/28 09:34:54;;;;;;;3.20;1.45;;;16.30;52.70;;;;;;10492527;28;20040;-61
2021/04/28 09:39:58;;;;;;;3.03;1.60;;;16.40;52.70;;;;;;10477806;28;20025;-62
2021/04/28 09:44:59;;;;;;;3.30;1.40;;;16.40;52.70;;;;;;10463945;28;20047;-61
2021/04/28 09:50:04;;;;;;;3.22;1.10;;;16.40;52.80;;;;;;10503987;28;20354;-61
2021/04/28 09:55:08;;;;;;;5.07;1.90;;;16.40;52.80;;;;;;10504439;28;20032;-59
2021/04/28 10:00:35;;;;;;;2.90;1.20;;;16.40;52.90;;;;;;10486367;28;20515;-61
2021/04/28 10:05:43;;;;;;;4.57;1.70;;;16.40;52.80;;;;;;10498661;28;20044;-62
2021/04/28 10:10:45;;;;;;;3.70;1.67;;;16.40;52.60;;;;;;10504034;28;20032;-62
2021/04/28 10:15:46;;;;;;;4.13;1.42;;;16.40;52.60;;;;;;10486250;28;20033;-62
2021/04/28 10:20:49;;;;;;;3.05;1.55;;;16.40;52.50;;;;;;10503610;28;20028;-62
2021/04/28 10:25:50;;;;;;;4.05;1.92;;;16.40;52.50;;;;;;10485878;28;20387;-62
2021/04/28 10:30:53;;;;;;;5.10;1.90;;;16.40;52.20;;;;;;10499991;28;20020;-60
2021/04/28 10:35:56;;;;;;;7.72;2.33;;;16.50;52.40;;;;;;10481360;28;20025;-61
2021/04/28 10:40:57;;;;;;;4.50;2.22;;;16.50;52.10;;;;;;10498554;28;20119;-61
2021/04/28 10:46:21;;;;;;;4.35;1.80;;;16.50;52.00;;;;;;10471621;28;20056;-61
2021/04/28 10:51:38;;;;;;;5.82;1.95;;;16.50;51.80;;;;;;10484425;28;20029;-61
2021/04/28 10:57:07;;;;;;;3.78;2.20;;;16.50;51.90;;;;;;10501070;28;20048;-61
2021/04/28 11:02:11;;;;;;;6.55;2.30;;;16.60;51.90;;;;;;10502254;28;20039;-61
2021/04/28 11:07:14;;;;;;;5.25;2.10;;;16.60;51.90;;;;;;10501465;28;20036;-59
2021/04/28 11:12:15;;;;;;;4.53;2.55;;;16.60;51.90;;;;;;10501259;28;20415;-59
2021/04/28 11:17:16;;;;;;;4.82;2.72;;;16.60;51.90;;;;;;10501689;28;20162;-59
2021/04/28 11:22:21;;;;;;;5.32;2.17;;;16.70;52.00;;;;;;10501421;28;20032;-59
2021/04/28 11:28:03;;;;;;;2.92;1.83;;;16.70;52.00;;;;;;10501140;28;20024;-63
2021/04/28 11:33:16;;;;;;;3.83;2.28;;;16.70;51.90;;;;;;10501407;28;20035;-62
2021/04/28 11:38:18;;;;;;;3.15;1.42;;;16.70;52.00;;;;;;10500583;28;20017;-62
2021/04/28 11:43:25;;;;;;;8.27;2.00;;;16.80;52.00;;;;;;10500288;28;20017;-58
2021/04/28 11:48:26;;;;;;;6.35;2.47;;;16.80;51.90;;;;;;10465623;28;20115;-59
2021/04/28 11:53:29;;;;;;;5.28;2.38;;;16.80;51.90;;;;;;10499350;28;20641;-59
2021/04/28 11:58:34;;;;;;;4.03;2.08;;;16.80;51.70;;;;;;10499608;28;20473;-59
2021/04/28 12:04:08;;;;;;;5.70;2.10;;;16.80;51.70;;;;;;10498699;28;20028;-59
2021/04/28 12:09:43;;;;;;;6.43;2.67;;;16.90;51.80;;;;;;10499182;28;20709;-59
2021/04/28 12:14:49;;;;;;;3.22;1.90;;;16.90;51.80;;;;;;10499032;28;20036;-58
2021/04/28 12:19:57;;;;;;;5.47;2.40;;;16.90;51.80;;;;;;10481324;28;20028;-59
2021/04/28 12:25:01;;;;;;;5.43;2.72;;;17.00;51.90;;;;;;10498046;28;20031;-61
2021/04/28 12:30:17;;;;;;;3.33;1.75;;;17.00;51.50;;;;;;10498145;28;20094;-61
2021/04/28 12:35:35;;;;;;;4.10;1.80;;;17.00;51.60;;;;;;10498428;28;20034;-63
2021/04/28 12:40:55;;;;;;;5.38;2.17;;;17.00;51.80;;;;;;10471345;28;20077;-60
2021/04/28 12:46:08;;;;;;;10.77;3.75;;;17.10;51.90;;;;;;10497688;28;20135;-59
2021/04/28 12:51:14;;;;;;;7.45;2.83;;;17.20;51.80;;;;;;10480822;28;20020;-57
2021/04/28 12:56:16;;;;;;;19.90;3.50;;;17.20;51.50;;;;;;10497391;28;20035;-59
2021/04/28 13:01:24;;;;;;;9.30;3.38;;;17.20;51.60;;;;;;10469415;28;20032;-58
2021/04/28 13:06:26;;;;;;;19.77;3.78;;;17.20;52.10;;;;;;10497338;28;20040;-58
2021/04/28 13:11:28;;;;;;;18.80;3.90;;;17.20;51.40;;;;;;10497281;28;20483;-57
2021/04/28 13:16:42;;;;;;;20.50;4.07;;;17.20;51.30;;;;;;10497352;28;20060;-57
2021/04/28 13:22:16;;;;;;;21.67;4.78;;;17.30;51.20;;;;;;10496260;28;20039;-58
2021/04/28 13:27:27;;;;;;;11.00;3.05;;;17.20;51.20;;;;;;10494069;28;20029;-59
2021/04/28 13:32:44;;;;;;;14.88;4.07;;;17.30;51.40;;;;;;10495250;28;20020;-59
2021/04/28 13:38:06;;;;;;;11.13;3.17;;;17.20;51.50;;;;;;10477576;28;20032;-58
2021/04/28 13:43:11;;;;;;;8.40;2.75;;;17.30;51.60;;;;;;10495473;28;20496;-59
2021/04/28 13:48:13;;;;;;;9.60;2.60;;;17.30;51.70;;;;;;10496108;28;20393;-58
2021/04/28 13:53:18;;;;;;;15.45;4.10;;;17.20;51.80;;;;;;10509486;28;20110;-58
2021/04/28 13:58:18;;;;;;;7.30;2.28;;;17.20;51.90;;;;;;10469030;28;20489;-58
2021/04/28 14:03:19;;;;;;;8.40;3.13;;;17.20;52.00;;;;;;10496185;28;20190;-58
2021/04/28 14:08:20;;;;;;;8.88;2.50;;;17.10;52.00;;;;;;10496393;28;20346;-58
2021/04/28 14:13:21;;;;;;;8.32;2.50;;;17.10;52.10;;;;;;10495990;28;20056;-58
2021/04/28 14:18:21;;;;;;;5.90;2.50;;;17.10;52.10;;;;;;10495842;28;20028;-59
2021/04/28 14:23:22;;;;;;;7.43;1.60;;;17.20;52.20;;;;;;10495711;28;20536;-58
2021/04/28 14:28:23;;;;;;;5.65;1.77;;;17.10;52.20;;;;;;10505399;28;20153;-58
2021/04/28 14:33:23;;;;;;;3.80;1.85;;;17.10;52.20;;;;;;10486424;28;20039;-58
2021/04/28 14:38:26;;;;;;;6.80;1.63;;;17.10;52.20;;;;;;10502927;28;20357;-57
2021/04/28 14:43:27;;;;;;;10.23;3.17;;;17.10;52.30;;;;;;10502780;28;20408;-58
2021/04/28 14:48:28;;;;;;;5.13;2.17;;;17.10;52.30;;;;;;10484945;28;20029;-58
2021/04/28 14:53:30;;;;;;;5.63;1.83;;;17.10;52.40;;;;;;10484607;28;20032;-58
2021/04/28 14:58:31;;;;;;;5.40;2.00;;;17.10;52.40;;;;;;10502154;28;20024;-58
2021/04/28 15:03:31;;;;;;;4.57;2.10;;;17.10;52.40;;;;;;10501979;28;20438;-58
2021/04/28 15:08:32;;;;;;;3.45;1.95;;;17.10;52.50;;;;;;10484057;28;20031;-57
2021/04/28 15:13:34;;;;;;;4.55;2.30;;;17.00;52.40;;;;;;10501706;28;20111;-57
2021/04/28 15:18:35;;;;;;;3.40;1.63;;;17.00;52.40;;;;;;10501489;28;20028;-58
2021/04/28 15:23:36;;;;;;;6.10;2.15;;;17.00;52.50;;;;;;10483540;28;20506;-58
2021/04/28 15:28:36;;;;;;;4.38;1.50;;;17.00;52.50;;;;;;10499964;28;20489;-58
2021/04/28 15:33:37;;;;;;;5.97;1.60;;;17.00;52.50;;;;;;10501061;28;20020;-58
2021/04/28 15:38:38;;;;;;;3.58;1.50;;;16.90;52.50;;;;;;10500704;28;20047;-58
2021/04/28 15:43:38;;;;;;;3.13;1.73;;;17.00;52.50;;;;;;10499866;28;20116;-58
2021/04/28 15:48:39;;;;;;;3.47;1.35;;;16.90;52.50;;;;;;10500692;28;20036;-58
2021/04/28 15:53:40;;;;;;;3.13;1.48;;;16.90;52.50;;;;;;10500306;28;20028;-58
2021/04/28 15:58:41;;;;;;;2.60;1.33;;;16.90;52.50;;;;;;10482010;28;20039;-58
2021/04/28 16:03:44;;;;;;;3.47;1.45;;;16.90;52.50;;;;;;10499533;28;20461;-58
2021/04/28 16:08:45;;;;;;;3.88;1.67;;;16.90;52.60;;;;;;10499438;28;20025;-58
2021/04/28 16:13:45;;;;;;;4.75;1.55;;;16.90;52.60;;;;;;10481624;28;20400;-62
2021/04/28 16:18:46;;;;;;;3.00;1.17;;;16.90;52.60;;;;;;10498003;28;20046;-58
2021/04/28 16:23:47;;;;;;;4.38;1.30;;;16.90;52.70;;;;;;10481112;28;20103;-57
2021/04/28 16:28:47;;;;;;;4.82;1.85;;;16.90;52.50;;;;;;10500278;28;20017;-58
2021/04/28 16:33:48;;;;;;;4.95;2.17;;;16.90;52.40;;;;;;10498215;28;20064;-58
2021/04/28 16:38:49;;;;;;;3.92;1.30;;;16.90;52.50;;;;;;10498239;28;20028;-57
2021/04/28 16:43:50;;;;;;;3.03;1.40;;;16.90;52.50;;;;;;10498211;28;20445;-57
2021/04/28 16:48:50;;;;;;;14.95;2.70;;;16.90;52.70;;;;;;10497991;28;20111;-58
2021/04/28 16:53:51;;;;;;;3.63;2.00;;;16.90;52.70;;;;;;10510851;28;20448;-57
2021/04/28 16:58:52;;;;;;;5.72;1.52;;;16.90;52.70;;;;;;10480138;28;20484;-56
2021/04/28 17:03:54;;;;;;;5.45;2.13;;;16.90;52.70;;;;;;10476539;28;20039;-54
2021/04/28 17:08:55;;;;;;;3.35;1.88;;;16.90;52.40;;;;;;10496760;28;20020;-57
2021/04/28 17:13:56;;;;;;;12.57;2.90;;;16.90;52.20;;;;;;10497100;28;20032;-57
2021/04/28 17:18:57;;;;;;;7.10;2.10;;;17.00;52.50;;;;;;10510448;28;20394;-56
2021/04/28 17:23:57;;;;;;;12.05;3.00;;;17.00;52.80;;;;;;10495267;28;20472;-55
2021/04/28 17:28:58;;;;;;;7.57;3.08;;;17.00;53.00;;;;;;10496439;28;20488;-56
2021/04/28 17:34:10;;;;;;;5.30;2.13;;;17.00;53.60;;;;;;10494989;28;20120;-56
2021/04/28 17:39:11;;;;;;;6.32;2.33;;;17.00;53.80;;;;;;10477674;28;20024;-55
2021/04/28 17:44:14;;;;;;;4.30;1.65;;;17.00;54.00;;;;;;10493748;28;20048;-56
2021/04/28 17:49:15;;;;;;;16.48;3.67;;;17.00;53.10;;;;;;10471299;28;20048;-55
2021/04/28 17:54:16;;;;;;;10.32;2.03;;;17.00;53.00;;;;;;10467165;28;20041;-56
2021/04/28 17:59:17;;;;;;;10.90;2.20;;;17.00;53.30;;;;;;10493718;28;20776;-56
2021/04/28 18:04:18;;;;;;;6.28;1.83;;;17.00;53.50;;;;;;10490809;28;20504;-56
2021/04/28 18:09:22;;;;;;;6.47;1.90;;;17.00;53.70;;;;;;10479033;28;20115;-53
2021/04/28 18:14:23;;;;;;;5.20;2.00;;;17.00;53.70;;;;;;10494012;28;20375;-55
2021/04/28 18:19:24;;;;;;;5.05;1.55;;;17.00;54.10;;;;;;10497406;28;20044;-56
2021/04/28 18:24:25;;;;;;;6.60;2.03;;;17.00;54.90;;;;;;10475326;28;20029;-53
2021/04/28 18:29:26;;;;;;;10.98;2.22;;;17.00;55.10;;;;;;10483508;28;20037;-60
2021/04/28 18:34:27;;;;;;;5.20;2.13;;;17.00;54.90;;;;;;10480851;28;20104;-61
2021/04/28 18:39:28;;;;;;;4.80;1.73;;;17.00;53.80;;;;;;10501694;28;20101;-61
2021/04/28 18:44:29;;;;;;;4.55;1.85;;;17.00;53.80;;;;;;10502055;28;20049;-59
2021/04/28 18:49:29;;;;;;;4.43;1.52;;;17.00;54.10;;;;;;10501401;28;20033;-60
2021/04/28 18:54:31;;;;;;;6.10;1.90;;;17.00;53.90;;;;;;10478662;28;20123;-60
2021/04/28 18:59:32;;;;;;;6.28;2.13;;;17.00;54.20;;;;;;10501247;28;20035;-62
2021/04/28 19:04:33;;;;;;;4.00;1.90;;;17.00;54.60;;;;;;10499614;28;20105;-56
2021/04/28 19:09:33;;;;;;;9.43;1.80;;;17.00;54.60;;;;;;10500295;28;20032;-56
2021/04/28 19:14:35;;;;;;;3.70;1.75;;;17.00;54.30;;;;;;10501243;28;20055;-56
2021/04/28 19:19:36;;;;;;;7.28;2.15;;;17.00;54.20;;;;;;10500619;28;20104;-57
2021/04/28 19:24:38;;;;;;;5.75;1.60;;;17.00;54.90;;;;;;10500644;28;20039;-60
2021/04/28 19:29:39;;;;;;;5.65;1.90;;;17.00;54.30;;;;;;10500442;28;20033;-60
2021/04/28 19:34:40;;;;;;;4.53;1.80;;;16.90;54.30;;;;;;10473692;28;20463;-60
2021/04/28 19:39:41;;;;;;;8.15;1.90;;;17.00;54.20;;;;;;10500244;28;20032;-60
2021/04/28 19:44:42;;;;;;;4.10;1.33;;;17.00;54.20;;;;;;10499962;28;20041;-60
2021/04/28 19:49:44;;;;;;;2.67;1.10;;;16.90;54.10;;;;;;10499261;28;20032;-57
2021/04/28 19:54:45;;;;;;;9.23;1.75;;;16.90;54.00;;;;;;10499224;28;20028;-57
2021/04/28 19:59:46;;;;;;;3.70;1.60;;;16.90;54.00;;;;;;10500006;28;20095;-56
2021/04/28 20:04:46;;;;;;;6.82;1.60;;;16.90;54.00;;;;;;10499903;28;20025;-56
2021/04/28 20:09:47;;;;;;;3.83;1.63;;;16.90;54.00;;;;;;10499767;28;20074;-57
2021/04/28 20:14:49;;;;;;;4.47;1.30;;;16.90;54.00;;;;;;10499470;28;20107;-57
2021/04/28 20:19:51;;;;;;;3.63;1.77;;;16.90;53.90;;;;;;10505413;28;20024;-57
2021/04/28 20:24:51;;;;;;;2.53;1.20;;;16.90;53.90;;;;;;10488478;28;20036;-57
2021/04/28 20:29:52;;;;;;;2.53;1.38;;;16.90;53.90;;;;;;10497929;28;20043;-57
2021/04/28 20:34:54;;;;;;;3.47;1.30;;;16.90;53.90;;;;;;10498778;28;20024;-57
2021/04/28 20:39:54;;;;;;;3.08;1.17;;;16.90;53.90;;;;;;10498477;28;20107;-57
2021/04/28 20:44:55;;;;;;;3.58;1.38;;;16.90;53.90;;;;;;10498207;28;20119;-57
2021/04/28 20:49:56;;;;;;;3.28;1.80;;;16.90;53.90;;;;;;10498241;28;20020;-56
2021/04/28 20:54:57;;;;;;;4.55;1.25;;;16.90;53.80;;;;;;10498014;28;20060;-57
2021/04/28 20:59:58;;;;;;;3.95;1.30;;;16.90;53.80;;;;;;10497903;28;20439;-56
2021/04/28 21:04:59;;;;;;;5.50;1.30;;;16.90;53.80;;;;;;10497798;28;20600;-57
2021/04/28 21:10:06;;;;;;;3.20;1.80;;;16.90;53.80;;;;;;10497468;28;20031;-57
2021/04/28 21:15:08;;;;;;;3.08;1.40;;;16.90;53.80;;;;;;10497485;28;20033;-56
2021/04/28 21:20:09;;;;;;;3.45;1.33;;;16.90;53.80;;;;;;10466109;28;20791;-56
2021/04/28 21:25:10;;;;;;;3.33;1.30;;;16.90;53.70;;;;;;10497253;28;20111;-56
2021/04/28 21:30:11;;;;;;;4.25;1.40;;;16.90;53.70;;;;;;10497108;28;20535;-57
2021/04/28 21:35:13;;;;;;;2.92;1.40;;;16.90;53.80;;;;;;10496861;28;20032;-57
2021/04/28 21:40:15;;;;;;;1.98;1.02;;;16.90;53.70;;;;;;10498571;28;20120;-57
2021/04/28 21:45:16;;;;;;;2.65;1.40;;;16.90;53.70;;;;;;10505162;28;20040;-56
2021/04/28 21:50:17;;;;;;;2.20;1.20;;;16.80;53.60;;;;;;10505670;28;20032;-57
2021/04/28 21:55:18;;;;;;;2.08;1.42;;;16.80;53.60;;;;;;10505038;28;20028;-57
2021/04/28 22:00:19;;;;;;;1.92;1.08;;;16.80;53.60;;;;;;10504918;28;20032;-56
2021/04/28 22:05:20;;;;;;;2.33;0.90;;;16.80;53.50;;;;;;10486836;28;20542;-57
2021/04/28 22:10:21;;;;;;;1.63;1.35;;;16.80;53.50;;;;;;10482868;28;20050;-56
2021/04/28 22:15:21;;;;;;;4.40;1.50;;;16.80;53.60;;;;;;10504207;28;20037;-56
2021/04/28 22:20:22;;;;;;;2.20;1.02;;;16.80;53.50;;;;;;10504059;28;20033;-57
2021/04/28 22:25:23;;;;;;;1.02;0.75;;;16.80;54.10;;;;;;10503813;28;20172;-57
2021/04/28 22:30:24;;;;;;;2.83;1.20;;;16.80;53.50;;;;;;10503778;28;20062;-57
2021/04/28 22:35:24;;;;;;;2.65;1.35;;;16.80;53.50;;;;;;10503430;28;20082;-57
2021/04/28 22:40:25;;;;;;;2.00;0.93;;;16.80;53.50;;;;;;10503267;28;20028;-56
2021/04/28 22:45:26;;;;;;;1.38;0.90;;;16.80;53.50;;;;;;10502940;28;20048;-56
2021/04/28 22:50:27;;;;;;;2.25;1.10;;;16.80;53.50;;;;;;10502873;28;20373;-56
2021/04/28 22:55:29;;;;;;;3.55;1.10;;;16.80;53.50;;;;;;10501542;28;20036;-56
2021/04/28 23:00:30;;;;;;;1.92;1.10;;;16.80;53.50;;;;;;10502425;28;20043;-57
2021/04/28 23:05:31;;;;;;;1.95;1.05;;;16.70;53.50;;;;;;10481515;28;20067;-57
2021/04/28 23:10:33;;;;;;;1.33;0.77;;;16.80;53.50;;;;;;10482451;28;20028;-56
2021/04/28 23:15:34;;;;;;;2.25;1.10;;;16.80;53.50;;;;;;10484078;28;20056;-57
2021/04/28 23:20:34;;;;;;;1.52;0.98;;;16.80;53.50;;;;;;10501929;28;20035;-57
2021/04/28 23:25:35;;;;;;;2.17;1.20;;;16.70;53.50;;;;;;10483657;28;20495;-56
2021/04/28 23:30:36;;;;;;;1.45;1.08;;;16.70;53.50;;;;;;10483372;28;20363;-57
2021/04/28 23:35:37;;;;;;;1.60;1.20;;;16.80;53.50;;;;;;10501258;28;20104;-56
2021/04/28 23:40:38;;;;;;;1.92;1.35;;;16.70;53.50;;;;;;10501100;28;20499;-57
2021/04/28 23:45:38;;;;;;;3.78;1.70;;;16.70;53.40;;;;;;10500608;28;20044;-56
2021/04/28 23:50:39;;;;;;;1.50;0.88;;;16.70;53.40;;;;;;10500706;28;20024;-56
2021/04/28 23:55:40;;;;;;;2.15;1.13;;;16.70;53.50;;;;;;10500356;28;20028;-56
